Time;durP1;ratioP1;P1;durP2;ratioP2;P2;SDS_P1;SDS_P2;PMS_P1;PMS_P2;Temp;Humidity;BMP_temperature;BMP_pressure;BME280_temperature;BME280_humidity;BME280_pressure;Samples;Min_cycle;Max_cycle;Signal;HPM_P1;HPM_P2
2022/06/14 00:02:53;;;;;;;10.13;3.00;;;;;;;17.48;100.00;102326.13;5021263;28;20103;-47
2022/06/14 00:05:19;;;;;;;7.10;2.33;;;;;;;17.39;100.00;102321.13;5033731;28;20366;-49
2022/06/14 00:07:44;;;;;;;9.53;2.90;;;;;;;17.37;100.00;102315.91;5033747;28;20045;-47
2022/06/14 00:10:10;;;;;;;12.63;4.47;;;;;;;16.88;100.00;102325.94;5033306;28;20278;-51
2022/06/14 00:12:35;;;;;;;13.70;3.03;;;;;;;17.09;100.00;102326.88;5033728;28;20073;-52
2022/06/14 00:15:02;;;;;;;17.85;3.35;;;;;;;16.67;100.00;102316.91;5033693;28;20034;-49
2022/06/14 00:17:27;;;;;;;12.45;2.72;;;;;;;16.88;100.00;102326.75;5032530;28;20105;-46
2022/06/14 00:19:53;;;;;;;16.83;3.20;;;;;;;16.80;100.00;102320.69;5023621;28;20142;-50
2022/06/14 00:22:18;;;;;;;18.33;3.35;;;;;;;16.75;100.00;102324.81;5033464;28;20041;-49
2022/06/14 00:24:44;;;;;;;14.30;4.22;;;;;;;16.95;100.00;102332.19;5031184;28;20034;-49
2022/06/14 00:27:09;;;;;;;10.70;2.47;;;;;;;17.12;100.00;102326.47;5036779;28;20033;-51
2022/06/14 00:29:35;;;;;;;10.50;3.20;;;;;;;17.02;100.00;102332.25;5012249;28;20290;-50
2022/06/14 00:32:01;;;;;;;13.70;3.00;;;;;;;17.71;100.00;102334.88;5033333;28;20056;-48
2022/06/14 00:34:27;;;;;;;11.82;2.67;;;;;;;17.03;100.00;102334.72;5031129;28;20060;-50
2022/06/14 00:36:55;;;;;;;12.25;3.15;;;;;;;16.88;100.00;102336.72;5028713;28;20053;-48
2022/06/14 00:39:21;;;;;;;15.17;3.97;;;;;;;16.85;100.00;102326.34;5017556;28;20054;-49
2022/06/14 00:41:50;;;;;;;17.55;3.85;;;;;;;16.86;100.00;102336.09;5028604;28;20299;-47
2022/06/14 00:44:23;;;;;;;18.13;3.20;;;;;;;16.97;100.00;102329.28;5033352;28;20071;-49
2022/06/14 00:47:06;;;;;;;11.83;3.20;;;;;;;17.07;100.00;102332.47;5028192;28;20270;-49
2022/06/14 00:49:39;;;;;;;8.73;2.30;;;;;;;16.69;100.00;102331.03;5033221;28;20274;-51
2022/06/14 00:52:16;;;;;;;12.23;3.50;;;;;;;16.81;100.00;102328.59;5033143;28;20271;-52
2022/06/14 00:54:45;;;;;;;17.75;3.42;;;;;;;16.86;100.00;102333.41;5023653;28;20275;-50
2022/06/14 00:57:24;;;;;;;12.77;3.40;;;;;;;16.80;100.00;102334.19;5032866;28;20053;-50
2022/06/14 01:00:04;;;;;;;11.70;3.57;;;;;;;16.74;100.00;102331.25;5032940;28;20294;-53
2022/06/14 01:02:35;;;;;;;13.13;2.90;;;;;;;16.69;100.00;102330.19;5019622;28;20279;-47
2022/06/14 01:05:08;;;;;;;17.70;3.27;;;;;;;16.73;100.00;102324.19;5032340;28;20275;-49
2022/06/14 01:07:41;;;;;;;18.90;3.40;;;;;;;16.63;100.00;102321.84;5032888;28;20336;-46
2022/06/14 01:10:32;;;;;;;12.80;3.93;;;;;;;16.51;100.00;102314.50;5029414;28;20294;-48
2022/06/14 01:13:02;;;;;;;14.95;3.67;;;;;;;16.71;100.00;102315.47;5022287;28;20276;-46
2022/06/14 01:15:33;;;;;;;14.10;3.93;;;;;;;16.56;100.00;102314.75;5032810;28;20097;-47
2022/06/14 01:18:09;;;;;;;12.70;3.17;;;;;;;16.14;100.00;102307.41;5032464;28;20275;-51
2022/06/14 01:20:35;;;;;;;11.47;3.60;;;;;;;15.91;100.00;102311.22;5031326;28;20295;-49
2022/06/14 01:23:03;;;;;;;14.43;3.93;;;;;;;15.95;100.00;102314.34;5031610;28;20330;-49
2022/06/14 01:25:33;;;;;;;14.60;3.45;;;;;;;15.89;100.00;102307.84;5032712;28;20271;-49
2022/06/14 01:28:01;;;;;;;8.75;3.05;;;;;;;15.98;100.00;102307.75;5032612;28;20093;-52
2022/06/14 01:30:31;;;;;;;19.60;3.85;;;;;;;15.78;100.00;102302.97;5032527;28;20037;-50
2022/06/14 01:33:08;;;;;;;18.67;4.47;;;;;;;15.72;100.00;102299.19;5016213;28;20034;-46
2022/06/14 01:35:36;;;;;;;;;;;;;;;15.80;100.00;102298.22;5023123;28;20279;-50
2022/06/14 01:38:06;;;;;;;12.50;3.67;;;;;;;16.03;100.00;102297.19;5032118;28;19924;-52
2022/06/14 01:41:04;;;;;;;11.00;3.20;;;;;;;16.10;100.00;102292.66;5018549;28;20093;-49
2022/06/14 01:44:01;;;;;;;13.77;4.35;;;;;;;16.07;100.00;102287.66;5032144;28;20267;-46
2022/06/14 01:46:31;;;;;;;15.10;3.90;;;;;;;16.03;100.00;102289.94;5032251;28;20041;-50
2022/06/14 01:52:25;;;;;;;12.77;3.30;;;;;;;15.66;100.00;102291.03;5032285;28;20037;-46
2022/06/14 01:55:04;;;;;;;14.98;3.70;;;;;;;15.80;100.00;102287.44;4974477;28;20056;-49
2022/06/14 01:57:45;;;;;;;14.90;3.38;;;;;;;15.85;100.00;102282.28;5032042;28;20034;-47
2022/06/14 02:00:27;;;;;;;11.68;3.60;;;;;;;16.22;100.00;102289.44;5032080;28;20049;-52
2022/06/14 02:06:25;;;;;;;12.65;3.47;;;;;;;16.64;100.00;102290.28;5031175;28;20061;-50
2022/06/14 02:09:01;;;;;;;16.02;3.60;;;;;;;16.74;100.00;102288.03;5028651;28;20053;-52
2022/06/14 02:11:31;;;;;;;12.93;3.38;;;;;;;16.38;100.00;102293.69;5030644;28;20166;-49
2022/06/14 02:14:22;;;;;;;15.15;4.07;;;;;;;16.41;100.00;102288.72;5019522;28;20038;-51
2022/06/14 02:17:08;;;;;;;18.07;5.10;;;;;;;15.97;100.00;102292.59;5017559;28;20088;-51
2022/06/14 02:19:39;;;;;;;13.98;4.45;;;;;;;15.83;100.00;102289.72;5025071;28;20280;-50
2022/06/14 02:22:13;;;;;;;17.27;4.05;;;;;;;15.87;100.00;102288.31;5029426;28;20045;-50
2022/06/14 02:24:48;;;;;;;17.05;3.92;;;;;;;15.78;100.00;102287.63;5017867;28;20141;-50
2022/06/14 02:27:26;;;;;;;14.35;4.07;;;;;;;16.59;100.00;102290.88;5025269;28;20114;-48
2022/06/14 02:30:05;;;;;;;18.38;4.13;;;;;;;16.80;100.00;102291.81;5030631;28;20034;-50
2022/06/14 02:32:44;;;;;;;18.58;4.68;;;;;;;17.27;100.00;102286.56;5026765;28;20101;-48
2022/06/14 02:35:15;;;;;;;12.48;3.53;;;;;;;16.72;100.00;102284.72;5012516;28;20066;-51
2022/06/14 02:37:55;;;;;;;19.67;4.47;;;;;;;16.00;100.00;102276.81;5015161;28;20042;-53
2022/06/14 02:40:29;;;;;;;15.40;4.35;;;;;;;15.84;100.00;102277.09;5015016;28;20038;-47
2022/06/14 02:43:01;;;;;;;10.90;4.20;;;;;;;15.59;100.00;102270.25;5015459;28;20040;-51
2022/06/14 02:45:33;;;;;;;14.63;4.25;;;;;;;16.13;100.00;102276.06;5026633;28;20037;-49
2022/06/14 02:48:11;;;;;;;14.07;3.83;;;;;;;15.95;100.00;102279.28;5018990;28;20046;-48
2022/06/14 02:50:46;;;;;;;16.70;4.18;;;;;;;15.69;100.00;102266.41;5028098;28;20097;-53
2022/06/14 02:53:22;;;;;;;12.13;3.92;;;;;;;15.74;100.00;102272.03;5022969;28;20037;-48
2022/06/14 02:56:07;;;;;;;14.18;4.13;;;;;;;16.02;100.00;102271.22;5024802;28;20063;-50
2022/06/14 02:58:43;;;;;;;13.68;3.92;;;;;;;16.97;100.00;102275.25;5031266;28;20056;-50
2022/06/14 03:01:36;;;;;;;21.90;3.90;;;;;;;16.83;100.00;102267.09;5018351;28;20065;-47
2022/06/14 03:04:10;;;;;;;13.02;3.60;;;;;;;15.85;100.00;102259.88;5030825;28;20326;-48
2022/06/14 03:06:42;;;;;;;10.25;3.97;;;;;;;16.87;100.00;102254.00;5031138;28;20046;-48
2022/06/14 03:09:13;;;;;;;15.15;4.63;;;;;;;16.70;100.00;102261.63;5031373;28;20034;-50
2022/06/14 03:11:44;;;;;;;12.38;3.95;;;;;;;16.60;100.00;102265.53;5031407;28;20034;-48
2022/06/14 03:14:29;;;;;;;12.90;3.97;;;;;;;16.90;100.00;102264.41;5030974;28;20057;-48
2022/06/14 03:17:06;;;;;;;15.60;4.40;;;;;;;17.09;100.00;102270.13;5031201;28;20049;-48
2022/06/14 03:19:37;;;;;;;15.30;4.32;;;;;;;17.20;100.00;102261.38;5030873;28;20053;-48
2022/06/14 03:22:15;;;;;;;11.55;4.20;;;;;;;16.96;100.00;102269.00;5020490;28;20038;-50
2022/06/14 03:24:52;;;;;;;16.25;4.95;;;;;;;16.95;100.00;102261.06;5025370;28;20035;-51
2022/06/14 03:27:28;;;;;;;14.00;4.13;;;;;;;17.42;100.00;102262.06;5017780;28;20060;-47
2022/06/14 03:30:06;;;;;;;12.40;4.00;;;;;;;16.96;100.00;102277.09;5034167;28;20045;-50
2022/06/14 03:32:45;;;;;;;18.35;4.60;;;;;;;16.89;100.00;102271.66;5034582;28;20044;-49
2022/06/14 03:35:26;;;;;;;11.75;4.55;;;;;;;16.24;100.00;102271.97;5034278;28;20076;-51
2022/06/14 03:37:55;;;;;;;12.70;4.32;;;;;;;17.16;100.00;102263.66;5020438;28;20042;-50
2022/06/14 03:40:23;;;;;;;18.90;6.15;;;;;;;18.14;100.00;102271.41;5020354;28;20044;-51
2022/06/14 03:42:49;;;;;;;16.63;4.28;;;;;;;16.71;100.00;102261.44;5034357;28;20055;-51
2022/06/14 03:45:19;;;;;;;17.30;5.43;;;;;;;16.56;100.00;102261.59;5034190;28;20057;-48
2022/06/14 03:47:45;;;;;;;20.52;4.28;;;;;;;17.82;100.00;102265.78;5034184;28;20037;-49
2022/06/14 03:50:14;;;;;;;12.95;4.72;;;;;;;17.16;100.00;102254.72;5033571;28;20031;-48
2022/06/14 03:52:54;;;;;;;12.18;4.22;;;;;;;17.33;100.00;102261.41;5021275;28;20057;-47
2022/06/14 03:55:34;;;;;;;18.15;6.78;;;;;;;16.82;100.00;102273.53;5034096;28;20034;-48
2022/06/14 03:58:18;;;;;;;18.65;5.78;;;;;;;17.54;100.00;102264.13;5034161;28;20034;-51
2022/06/14 04:01:23;;;;;;;17.48;7.15;;;;;;;17.12;100.00;102269.69;5013439;28;20046;-49
2022/06/14 04:04:17;;;;;;;26.30;11.95;;;;;;;17.82;100.00;102266.63;4993818;28;20042;-50
2022/06/14 04:07:11;;;;;;;29.83;12.25;;;;;;;17.45;100.00;102261.66;5032007;28;20037;-47
2022/06/14 04:09:54;;;;;;;19.80;8.10;;;;;;;17.30;100.00;102264.53;5006210;28;20034;-52
2022/06/14 04:12:24;;;;;;;28.45;9.68;;;;;;;16.99;100.00;102268.63;5033124;28;20278;-50
2022/06/14 04:14:57;;;;;;;18.03;6.63;;;;;;;17.53;100.00;102268.72;5021457;28;20029;-52
2022/06/14 04:17:40;;;;;;;24.90;7.63;;;;;;;17.76;100.00;102268.28;5033764;28;20283;-47
2022/06/14 04:20:13;;;;;;;22.40;6.77;;;;;;;17.53;100.00;102271.44;5012302;28;20291;-47
2022/06/14 04:22:58;;;;;;;28.98;10.77;;;;;;;18.19;100.00;102279.72;5032484;28;20279;-48
2022/06/14 04:25:37;;;;;;;55.10;22.17;;;;;;;18.29;100.00;102279.28;5024306;28;20034;-51
2022/06/14 04:28:08;;;;;;;64.57;28.80;;;;;;;18.15;100.00;102270.38;5025142;28;20030;-49
2022/06/14 04:30:53;;;;;;;26.30;8.77;;;;;;;17.88;100.00;102282.03;5032642;28;20272;-47
2022/06/14 04:33:26;;;;;;;21.47;7.60;;;;;;;17.32;100.00;102278.69;5032032;28;20282;-50
2022/06/14 04:36:01;;;;;;;27.80;6.27;;;;;;;17.32;100.00;102272.44;5033025;28;20309;-49
2022/06/14 04:38:36;;;;;;;21.57;8.37;;;;;;;17.96;100.00;102274.72;5020191;28;20268;-48
2022/06/14 04:41:08;;;;;;;26.50;7.67;;;;;;;17.87;100.00;102274.94;5013714;28;20272;-49
2022/06/14 04:43:46;;;;;;;15.93;3.80;;;;;;;17.80;100.00;102278.69;5015490;28;20272;-50
2022/06/14 04:46:40;;;;;;;14.70;3.90;;;;;;;17.86;100.00;102284.13;5029363;28;20256;-47
2022/06/14 04:49:13;;;;;;;14.07;4.07;;;;;;;18.56;100.00;102279.22;5028422;28;20283;-51
2022/06/14 04:51:50;;;;;;;13.57;4.00;;;;;;;18.28;100.00;102283.03;5025559;28;20296;-52
2022/06/14 04:54:22;;;;;;;11.05;3.13;;;;;;;17.52;100.00;102283.25;5029405;28;20364;-52
2022/06/14 04:56:54;;;;;;;15.63;4.17;;;;;;;18.09;100.00;102288.28;5030008;28;20038;-50
2022/06/14 04:59:45;;;;;;;11.00;3.57;;;;;;;17.56;100.00;102289.94;5030267;28;20356;-51
2022/06/14 05:02:14;;;;;;;14.43;4.10;;;;;;;18.29;100.00;102293.66;5028826;28;20339;-51
2022/06/14 05:04:47;;;;;;;13.27;4.40;;;;;;;18.25;100.00;102297.00;5028591;28;20275;-50
2022/06/14 05:07:53;;;;;;;14.60;4.10;;;;;;;17.55;100.00;102296.41;5031134;28;20279;-53
2022/06/14 05:10:24;;;;;;;17.37;3.50;;;;;;;17.34;100.00;102294.69;5031688;28;20351;-50
2022/06/14 05:13:00;;;;;;;10.80;3.33;;;;;;;17.21;100.00;102298.19;5024778;28;20264;-50
2022/06/14 05:15:45;;;;;;;13.73;3.60;;;;;;;17.49;100.00;102299.91;5028625;28;20271;-49
2022/06/14 05:18:40;;;;;;;12.27;3.10;;;;;;;17.85;100.00;102295.97;5029727;28;20298;-47
2022/06/14 05:21:13;;;;;;;12.77;3.80;;;;;;;17.83;100.00;102305.34;5028706;28;20264;-50
2022/06/14 05:23:49;;;;;;;10.40;3.63;;;;;;;17.85;100.00;102309.50;5027101;28;20279;-47
2022/06/14 05:26:50;;;;;;;8.23;2.90;;;;;;;17.96;100.00;102313.47;5028648;28;20382;-51
2022/06/14 05:29:22;;;;;;;14.07;3.53;;;;;;;17.80;100.00;102313.88;4984952;28;20299;-47
2022/06/14 05:31:50;;;;;;;14.93;4.07;;;;;;;17.82;100.00;102309.94;5023940;28;20272;-50
2022/06/14 05:34:25;;;;;;;11.77;3.30;;;;;;;17.74;100.00;102308.25;5021830;28;20287;-48
2022/06/14 05:37:13;;;;;;;12.00;2.63;;;;;;;18.36;100.00;102311.78;5028261;28;20283;-51
2022/06/14 05:39:48;;;;;;;13.13;3.80;;;;;;;18.13;100.00;102305.75;5025420;28;20283;-46
2022/06/14 05:42:19;;;;;;;14.57;4.03;;;;;;;18.96;100.00;102310.72;5023511;28;20267;-49
2022/06/14 05:44:48;;;;;;;9.17;2.87;;;;;;;17.95;100.00;102309.09;5024279;28;20289;-47
2022/06/14 05:47:17;;;;;;;13.07;4.10;;;;;;;18.01;100.00;102310.13;5027461;28;20279;-53
2022/06/14 05:49:52;;;;;;;17.03;3.43;;;;;;;17.95;100.00;102313.66;5029834;28;20255;-49
2022/06/14 05:52:27;;;;;;;12.13;3.10;;;;;;;18.53;100.00;102314.84;5023303;28;20293;-47
2022/06/14 05:55:01;;;;;;;12.20;2.90;;;;;;;17.28;100.00;102319.84;5026769;28;20279;-50
2022/06/14 05:57:32;;;;;;;12.77;3.93;;;;;;;18.05;100.00;102314.13;5027467;28;20289;-50
2022/06/14 06:00:06;;;;;;;10.53;3.17;;;;;;;17.50;100.00;102309.69;5031092;28;20305;-49
2022/06/14 06:02:39;;;;;;;14.00;3.33;;;;;;;17.18;100.00;102317.53;5026689;28;20293;-48
2022/06/14 06:05:27;;;;;;;13.30;2.37;;;;;;;17.25;100.00;102315.66;5029574;28;20275;-51
2022/06/14 06:07:59;;;;;;;10.30;2.33;;;;;;;17.31;100.00;102311.31;5019835;28;20280;-50
2022/06/14 06:10:33;;;;;;;8.17;1.80;;;;;;;17.38;100.00;102308.63;5017402;28;20315;-49
2022/06/14 06:13:04;;;;;;;10.80;2.27;;;;;;;17.49;100.00;102310.72;5028837;28;20343;-50
2022/06/14 06:15:45;;;;;;;11.10;2.87;;;;;;;17.62;100.00;102310.75;5022460;28;20271;-47
2022/06/14 06:18:19;;;;;;;10.03;2.60;;;;;;;18.54;100.00;102311.09;5024606;28;20299;-53
2022/06/14 06:20:52;;;;;;;8.97;1.70;;;;;;;17.89;100.00;102308.03;5018811;28;20277;-52
2022/06/14 06:23:26;;;;;;;13.50;3.90;;;;;;;18.22;100.00;102311.78;5012215;28;20335;-50
2022/06/14 06:25:56;;;;;;;11.67;2.40;;;;;;;18.44;100.00;102311.53;5016600;28;20287;-52
2022/06/14 06:28:28;;;;;;;9.57;2.60;;;;;;;17.91;100.00;102308.66;5024968;28;20264;-51
2022/06/14 06:31:13;;;;;;;12.93;2.00;;;;;;;18.45;100.00;102319.47;5011787;28;20344;-50
2022/06/14 06:33:43;;;;;;;6.37;2.30;;;;;;;18.26;100.00;102314.91;5013731;28;20263;-48
2022/06/14 06:36:43;;;;;;;11.23;4.47;;;;;;;18.81;100.00;102313.72;5011771;28;20304;-51
2022/06/14 06:39:36;;;;;;;6.97;2.90;;;;;;;18.13;100.00;102315.78;5011767;28;20307;-51
2022/06/14 06:42:08;;;;;;;12.63;2.40;;;;;;;18.97;100.00;102325.94;5024971;28;20282;-49
2022/06/14 06:44:54;;;;;;;8.27;3.20;;;;;;;18.74;100.00;102325.41;5014183;28;20291;-49
2022/06/14 06:47:33;;;;;;;9.47;2.60;;;;;;;19.24;100.00;102325.81;5028867;28;20295;-48
2022/06/14 06:50:17;;;;;;;5.40;1.60;;;;;;;19.16;100.00;102319.63;5018679;28;20271;-48
2022/06/14 06:53:06;;;;;;;7.73;2.33;;;;;;;19.56;100.00;102317.69;5012314;28;20331;-50
2022/06/14 06:55:41;;;;;;;4.23;1.50;;;;;;;18.87;100.00;102319.09;4997740;28;20283;-54
2022/06/14 06:58:16;;;;;;;11.40;2.33;;;;;;;18.94;100.00;102324.50;5031068;28;20268;-50
2022/06/14 07:00:44;;;;;;;8.30;1.80;;;;;;;19.17;100.00;102325.88;5014052;28;20272;-49
2022/06/14 07:03:22;;;;;;;9.77;1.87;;;;;;;19.76;100.00;102328.41;5025896;28;20268;-51
2022/06/14 07:05:59;;;;;;;3.30;1.13;;;;;;;20.23;100.00;102327.16;5020636;28;20295;-51
2022/06/14 07:08:55;;;;;;;7.55;2.08;;;;;;;20.41;100.00;102329.91;5004722;28;20282;-49
2022/06/14 07:11:27;;;;;;;6.07;1.30;;;;;;;19.45;100.00;102328.19;5033013;28;20034;-53
2022/06/14 07:13:57;;;;;;;7.73;1.83;;;;;;;19.62;100.00;102325.81;5033964;28;20703;-51
2022/06/14 07:16:29;;;;;;;6.73;1.90;;;;;;;19.66;100.00;102328.06;5026118;28;20283;-52
2022/06/14 07:19:23;;;;;;;4.70;1.37;;;;;;;19.53;100.00;102329.81;5025567;28;20302;-53
2022/06/14 07:21:57;;;;;;;8.37;1.63;;;;;;;19.32;100.00;102334.53;5018477;28;20287;-53
2022/06/14 07:24:30;;;;;;;5.00;1.83;;;;;;;19.13;100.00;102332.75;5017373;28;20264;-51
2022/06/14 07:27:13;;;;;;;6.23;1.60;;;;;;;19.30;100.00;102324.97;5019887;28;20339;-49
2022/06/14 07:29:50;;;;;;;5.20;1.87;;;;;;;19.59;100.00;102331.63;5033794;28;20271;-54
2022/06/14 07:32:25;;;;;;;;;;;;;;;19.05;100.00;102329.25;5020196;28;20272;-52
2022/06/14 07:34:53;;;;;;;10.77;3.20;;;;;;;19.14;98.19;102327.13;5018915;28;19918;-47
2022/06/14 07:37:46;;;;;;;29.90;14.83;;;;;;;19.40;100.00;102327.22;5031511;28;20275;-49
2022/06/14 07:40:21;;;;;;;4.60;1.90;;;;;;;19.47;100.00;102331.50;5033869;28;20302;-51
2022/06/14 07:43:04;;;;;;;3.87;1.27;;;;;;;19.57;100.00;102336.47;5031046;28;20283;-54
2022/06/14 07:45:38;;;;;;;6.57;1.87;;;;;;;19.87;99.66;102330.41;5032401;28;20282;-52
2022/06/14 07:48:11;;;;;;;6.67;1.40;;;;;;;20.38;98.00;102332.25;5020394;28;20305;-48
2022/06/14 07:50:59;;;;;;;12.83;3.37;;;;;;;20.02;95.70;102321.94;5021082;28;20341;-52
2022/06/14 07:53:35;;;;;;;5.93;1.87;;;;;;;20.29;91.96;102323.56;5029476;28;20259;-49
2022/06/14 07:56:17;;;;;;;4.93;1.92;;;;;;;19.92;95.70;102324.31;5016948;28;20308;-48
2022/06/14 07:58:55;;;;;;;6.20;1.93;;;;;;;21.49;83.87;102334.00;5019349;28;20031;-51
2022/06/14 08:01:30;;;;;;;4.77;2.30;;;;;;;20.99;83.45;102330.53;5035143;28;20271;-51
2022/06/14 08:04:15;;;;;;;9.43;3.43;;;;;;;20.68;87.62;102328.78;5020937;28;20268;-51
2022/06/14 08:06:47;;;;;;;4.93;1.90;;;;;;;21.08;84.75;102335.63;5016622;28;20335;-53
2022/06/14 08:09:25;;;;;;;6.23;2.03;;;;;;;20.65;87.25;102323.81;5018004;28;20279;-52
2022/06/14 08:11:53;;;;;;;6.87;1.43;;;;;;;21.43;79.67;102332.19;5016618;28;20746;-53
2022/06/14 08:14:27;;;;;;;5.53;1.83;;;;;;;21.69;79.47;102328.28;5013917;28;20260;-52
2022/06/14 08:16:54;;;;;;;4.93;1.33;;;;;;;22.25;75.69;102324.38;5017956;28;20278;-47
2022/06/14 08:19:31;;;;;;;7.23;1.37;;;;;;;22.42;73.93;102325.31;5016340;28;20286;-51
2022/06/14 08:22:05;;;;;;;5.78;1.10;;;;;;;22.21;74.01;102324.00;5013348;28;20300;-49
2022/06/14 08:24:37;;;;;;;6.20;1.77;;;;;;;21.65;80.44;102331.69;5026574;28;20038;-49
2022/06/14 08:27:17;;;;;;;4.27;1.20;;;;;;;21.65;80.13;102331.69;5026091;28;20038;-46
2022/06/14 08:29:55;;;;;;;4.23;1.60;;;;;;;21.36;79.90;102329.59;5004132;28;20019;-50
2022/06/14 08:32:36;;;;;;;3.77;1.20;;;;;;;21.47;79.82;102326.06;5028540;28;20051;-50
2022/06/14 08:35:10;;;;;;;3.73;1.53;;;;;;;21.57;79.34;102325.50;5025944;28;20042;-51
2022/06/14 08:37:44;;;;;;;7.77;1.60;;;;;;;22.46;75.72;102323.78;5032840;28;20034;-49
2022/06/14 08:40:28;;;;;;;9.40;1.93;;;;;;;22.01;78.76;102316.22;5025798;28;20049;-52
2022/06/14 08:43:01;;;;;;;14.07;6.53;;;;;;;22.25;76.51;102308.84;5026242;28;20054;-51
2022/06/14 08:45:35;;;;;;;5.37;1.77;;;;;;;22.97;73.87;102317.72;5027792;28;20041;-48
2022/06/14 08:48:22;;;;;;;16.93;6.43;;;;;;;22.86;72.86;102319.41;5031388;28;20069;-50
2022/06/14 08:51:13;;;;;;;7.72;2.88;;;;;;;23.35;71.09;102320.88;5018912;28;20043;-51
2022/06/14 08:53:57;;;;;;;8.13;1.77;;;;;;;23.44;70.76;102318.56;5012823;28;20046;-48
2022/06/14 08:57:00;;;;;;;5.53;1.63;;;;;;;23.59;68.83;102313.38;5017461;28;20045;-49
2022/06/14 08:59:36;;;;;;;5.50;2.10;;;;;;;23.63;68.55;102316.41;5026386;28;20061;-53
2022/06/14 09:02:30;;;;;;;7.70;2.20;;;;;;;23.84;65.22;102322.22;5029000;28;20029;-48
2022/06/14 09:05:20;;;;;;;7.77;2.10;;;;;;;23.94;64.99;102316.06;5026637;28;20040;-50
2022/06/14 09:08:18;;;;;;;25.47;12.30;;;;;;;23.83;65.68;102315.09;5028179;28;20042;-50
2022/06/14 09:10:49;;;;;;;;;;;;;;;24.18;63.13;102323.00;5015947;28;20062;-51
2022/06/14 09:13:33;;;;;;;7.03;1.63;;;;;;;24.42;60.32;102317.31;5019243;28;19909;-48
2022/06/14 09:16:13;;;;;;;8.23;2.43;;;;;;;23.78;62.28;102313.13;5018388;28;20045;-51
2022/06/14 09:18:54;;;;;;;13.33;5.00;;;;;;;23.98;62.63;102311.75;5019612;28;20046;-49
2022/06/14 09:21:22;;;;;;;10.80;3.23;;;;;;;23.47;64.78;102318.06;5019933;28;20034;-50
2022/06/14 09:24:11;;;;;;;13.83;3.47;;;;;;;23.36;66.37;102311.59;5022438;28;20102;-49
2022/06/14 09:26:39;;;;;;;13.90;5.53;;;;;;;23.51;66.38;102308.31;5021459;28;20064;-48
2022/06/14 09:29:32;;;;;;;13.10;4.17;;;;;;;24.89;59.02;102304.22;5021601;28;20067;-51
2022/06/14 09:32:32;;;;;;;15.70;6.50;;;;;;;24.14;63.75;102310.13;5014037;28;20030;-48
2022/06/14 09:35:42;;;;;;;10.80;3.47;;;;;;;24.40;61.40;102297.59;5023236;28;20090;-49
2022/06/14 09:38:42;;;;;;;8.87;3.77;;;;;;;24.52;61.24;102299.41;5014568;28;20038;-48
2022/06/14 09:41:38;;;;;;;11.50;4.50;;;;;;;25.32;59.63;102305.19;5031761;28;20042;-53
2022/06/14 09:44:26;;;;;;;30.43;11.87;;;;;;;26.19;54.65;102308.88;5018165;28;20038;-50
2022/06/14 09:47:11;;;;;;;11.50;5.00;;;;;;;26.31;51.75;102297.69;5028610;28;20120;-53
2022/06/14 09:49:56;;;;;;;20.73;4.67;;;;;;;26.32;53.53;102302.09;5015232;28;20033;-51
2022/06/14 09:52:44;;;;;;;14.53;4.77;;;;;;;26.17;52.00;102300.06;5020592;28;20038;-48
2022/06/14 09:55:46;;;;;;;17.25;6.28;;;;;;;26.83;48.69;102301.41;5021627;28;20039;-50
2022/06/14 09:58:21;;;;;;;3.80;1.65;;;;;;;28.70;45.03;102296.53;5012590;28;20061;-54
2022/06/14 10:01:10;;;;;;;10.95;2.70;;;;;;;28.97;43.28;102303.53;5011172;28;20050;-49
2022/06/14 10:03:59;;;;;;;10.02;2.47;;;;;;;30.07;41.11;102301.50;5017800;28;20041;-50
2022/06/14 10:06:48;;;;;;;5.40;1.55;;;;;;;30.27;39.10;102299.59;5022756;28;20062;-51
2022/06/14 10:09:46;;;;;;;6.20;2.40;;;;;;;31.01;38.39;102287.25;5012499;28;20034;-52
2022/06/14 10:12:21;;;;;;;5.80;3.08;;;;;;;32.14;36.52;102295.50;5011723;28;20038;-50
2022/06/14 10:15:11;;;;;;;5.88;2.30;;;;;;;32.06;35.76;102298.16;5011256;28;20122;-49
2022/06/14 10:18:12;;;;;;;4.97;1.40;;;;;;;32.06;34.75;102292.63;4999042;28;20061;-50
2022/06/14 10:20:45;;;;;;;3.60;1.75;;;;;;;31.67;36.66;102294.75;4996047;28;20042;-54
2022/06/14 10:23:43;;;;;;;8.00;1.67;;;;;;;32.54;34.66;102296.91;5025916;28;20018;-52
2022/06/14 10:29:52;;;;;;;9.80;3.38;;;;;;;34.11;31.71;102296.25;5025499;28;20041;-52
2022/06/14 10:32:37;;;;;;;8.30;3.65;;;;;;;33.16;32.13;102293.50;5027492;28;20029;-49
2022/06/14 10:35:34;;;;;;;7.88;2.13;;;;;;;33.35;31.98;102286.13;5026854;28;20058;-54
2022/06/14 10:38:12;;;;;;;9.07;2.60;;;;;;;34.54;29.50;102296.69;5015653;28;20037;-52
2022/06/14 10:40:59;;;;;;;8.45;2.17;;;;;;;35.02;28.88;102292.94;5025245;28;20038;-55
2022/06/14 10:43:47;;;;;;;9.20;3.58;;;;;;;34.75;29.28;102288.53;5025423;28;20041;-53
2022/06/14 10:46:33;;;;;;;3.85;1.45;;;;;;;34.29;28.60;102285.19;5023851;28;20033;-52
2022/06/14 10:49:07;;;;;;;8.52;2.90;;;;;;;34.08;29.71;102282.25;5025562;28;20031;-53
2022/06/14 10:51:44;;;;;;;5.20;1.40;;;;;;;34.39;29.06;102275.75;5028061;28;20029;-49
2022/06/14 10:54:31;;;;;;;13.52;4.25;;;;;;;34.79;28.41;102270.06;5018652;28;20049;-55
2022/06/14 10:57:21;;;;;;;5.93;2.03;;;;;;;35.07;27.74;102263.38;5021259;28;20034;-50
2022/06/14 11:00:18;;;;;;;5.07;1.70;;;;;;;36.00;27.30;102258.06;5023036;28;20135;-51
2022/06/14 11:02:53;;;;;;;23.60;14.50;;;;;;;36.25;26.46;102257.47;5023944;28;20042;-51
2022/06/14 11:05:31;;;;;;;40.38;25.27;;;;;;;36.37;27.01;102260.28;5019079;28;20042;-53
2022/06/14 11:08:05;;;;;;;17.75;9.38;;;;;;;36.01;27.22;102245.78;5026494;28;20038;-55
2022/06/14 11:10:57;;;;;;;4.80;1.88;;;;;;;36.14;26.67;102248.69;5027795;28;20038;-53
2022/06/14 11:13:37;;;;;;;8.00;3.88;;;;;;;36.38;26.56;102247.19;5027720;28;20068;-49
2022/06/14 11:16:41;;;;;;;10.55;5.32;;;;;;;36.62;26.34;102251.28;5028105;28;20047;-52
2022/06/14 11:19:49;;;;;;;6.43;2.72;;;;;;;36.59;27.02;102245.25;5024692;28;20039;-50
2022/06/14 11:22:48;;;;;;;16.70;6.20;;;;;;;36.61;26.07;102244.88;5026778;28;20034;-53
2022/06/14 11:25:26;;;;;;;10.32;4.15;;;;;;;37.44;25.12;102235.81;5027034;28;20034;-50
2022/06/14 11:28:07;;;;;;;18.75;8.82;;;;;;;36.87;28.12;102239.06;5026730;28;20034;-53
2022/06/14 11:31:03;;;;;;;38.75;20.25;;;;;;;36.70;26.22;102236.44;5017658;28;20056;-50
2022/06/14 11:33:48;;;;;;;15.73;8.55;;;;;;;37.71;24.55;102239.09;5021081;28;20107;-52
2022/06/14 11:36:36;;;;;;;13.63;6.18;;;;;;;38.27;23.59;102237.59;4983472;28;20043;-50
2022/06/14 11:39:36;;;;;;;16.02;7.18;;;;;;;39.43;23.92;102235.16;4986887;28;20040;-50
2022/06/14 11:42:09;;;;;;;10.07;4.28;;;;;;;39.28;24.05;102223.59;4979261;28;20065;-49
2022/06/14 11:44:47;;;;;;;8.73;3.13;;;;;;;39.08;23.74;102225.50;4976856;28;20039;-52
2022/06/14 11:47:48;;;;;;;10.18;3.67;;;;;;;39.30;24.39;102223.22;4985038;28;20043;-53
2022/06/14 11:50:29;;;;;;;7.47;1.98;;;;;;;36.92;25.23;102218.53;5006991;28;20065;-48
2022/06/14 11:53:33;;;;;;;8.68;3.78;;;;;;;37.88;24.03;102227.69;4984931;28;20065;-49
2022/06/14 11:56:11;;;;;;;9.90;3.72;;;;;;;38.21;23.88;102216.69;4980921;28;20058;-52
2022/06/14 11:59:03;;;;;;;3.75;1.88;;;;;;;39.00;23.59;102221.72;4993064;28;20027;-51
2022/06/14 12:01:50;;;;;;;5.13;3.15;;;;;;;38.76;23.29;102221.84;4975000;28;20070;-52
2022/06/14 12:04:33;;;;;;;7.63;3.30;;;;;;;38.66;23.47;102217.59;4980452;28;20057;-51
2022/06/14 12:07:22;;;;;;;10.82;2.70;;;;;;;39.55;23.03;102214.66;4981709;28;20039;-51
2022/06/14 12:10:25;;;;;;;6.10;1.70;;;;;;;39.55;23.03;102203.47;4975218;28;20066;-52
2022/06/14 12:13:05;;;;;;;7.63;2.08;;;;;;;39.76;22.50;102205.94;4986466;28;20099;-52
2022/06/14 12:15:52;;;;;;;8.40;2.78;;;;;;;40.47;21.66;102207.06;4986909;28;20039;-52
2022/06/14 12:18:21;;;;;;;9.48;3.33;;;;;;;40.72;21.45;102213.16;4987038;28;20102;-53
2022/06/14 12:21:16;;;;;;;6.63;2.78;;;;;;;39.99;21.78;102203.28;4983358;28;20031;-53